Time,TemperatureF,DewpointF,PressureIn,WindDirection,WindDirectionDegrees,WindSpeedMPH,WindSpeedGustMPH,Humidity,HourlyPrecipIn,Conditions,Clouds,dailyrainin,SoftwareType,DateUTC
2013-02-23 00:01:00,36.6,28.4,30.18,NNE,29,3.0,3.0,72,0.00,,,0.00,VWS V14.01,2013-02-23 07:01:00,
2013-02-23 00:06:00,36.0,26.8,30.18,NNE,29,2.0,3.0,69,0.00,,,0.00,VWS V14.01,2013-02-23 07:06:00,
2013-02-23 00:11:00,35.6,26.8,30.18,NNE,29,1.0,2.0,70,0.00,,,0.00,VWS V14.01,2013-02-23 07:11:00,
2013-02-23 00:16:00,35.5,26.7,30.18,NNE,29,1.0,1.0,70,0.00,,,0.00,VWS V14.01,2013-02-23 07:16:00,
2013-02-23 00:21:00,35.3,26.5,30.18,NNE,29,0.0,1.0,70,0.00,,,0.00,VWS V14.01,2013-02-23 07:21:00,
2013-02-23 00:26:00,35.2,26.8,30.18,NNE,29,1.0,1.0,71,0.00,,,0.00,VWS V14.01,2013-02-23 07:26:00,
2013-02-23 00:31:00,35.2,26.4,30.18,NNE,29,0.0,2.0,70,0.00,,,0.00,VWS V14.01,2013-02-23 07:31:00,
2013-02-23 00:36:00,35.2,26.8,30.18,NNE,29,0.0,0.0,71,0.00,,,0.00,VWS V14.01,2013-02-23 07:36:00,
2013-02-23 00:41:00,35.1,26.7,30.18,NNE,29,0.0,2.0,71,0.00,,,0.00,VWS V14.01,2013-02-23 07:41:00,
2013-02-23 00:46:00,35.0,26.9,30.18,NNE,29,0.0,2.0,72,0.00,,,0.00,VWS V14.01,2013-02-23 07:46:00,
2013-02-23 00:51:00,34.9,26.5,30.18,NNE,29,2.0,3.0,71,0.00,,,0.00,VWS V14.01,2013-02-23 07:51:00,
2013-02-23 00:56:00,34.7,26.6,30.17,NNE,29,1.0,2.0,72,0.00,,,0.00,VWS V14.01,2013-02-23 07:56:00,
2013-02-23 01:01:00,34.6,26.9,30.17,NNE,29,0.0,2.0,73,0.00,,,0.00,VWS V14.01,2013-02-23 08:01:00,
2013-02-23 01:06:00,34.4,26.7,30.18,NNE,29,1.0,3.0,73,0.00,,,0.00,VWS V14.01,2013-02-23 08:06:00,
2013-02-23 01:11:00,34.1,26.7,30.17,NNE,29,0.0,0.0,74,0.00,,,0.00,VWS V14.01,2013-02-23 08:11:00,
2013-02-23 01:16:00,33.9,26.5,30.18,NNE,29,1.0,1.0,74,0.00,,,0.00,VWS V14.01,2013-02-23 08:16:00,
2013-02-23 01:21:00,33.7,26.3,30.17,NNE,29,0.0,2.0,74,0.00,,,0.00,VWS V14.01,2013-02-23 08:21:00,
2013-02-23 01:26:00,33.5,26.4,30.17,NNE,29,0.0,3.0,75,0.00,,,0.00,VWS V14.01,2013-02-23 08:26:00,
2013-02-23 01:31:00,33.5,26.4,30.17,NNE,29,0.0,3.0,75,0.00,,,0.00,VWS V14.01,2013-02-23 08:31:00,
2013-02-23 01:36:00,33.6,26.5,30.17,NNE,29,0.0,3.0,75,0.00,,,0.00,VWS V14.01,2013-02-23 08:36:00,
2013-02-23 01:41:00,33.5,26.4,30.17,NNE,29,0.0,1.0,75,0.00,,,0.00,VWS V14.01,2013-02-23 08:41:00,
2013-02-23 01:47:00,33.4,26.3,30.17,NNE,29,3.0,3.0,75,0.00,,,0.00,VWS V14.01,2013-02-23 08:47:00,
2013-02-23 01:52:00,33.4,26.3,30.17,NNE,29,1.0,2.0,75,0.00,,,0.00,VWS V14.01,2013-02-23 08:52:00,
2013-02-23 01:57:00,33.4,26.3,30.17,NNE,29,2.0,3.0,75,0.00,,,0.00,VWS V14.01,2013-02-23 08:57:00,
2013-02-23 02:02:00,33.3,26.2,30.17,NNE,29,1.0,2.0,75,0.00,,,0.00,VWS V14.01,2013-02-23 09:02:00,
2013-02-23 02:07:00,33.1,26.0,30.16,NNE,29,1.0,2.0,75,0.00,,,0.00,VWS V14.01,2013-02-23 09:07:00,
2013-02-23 02:12:00,33.1,25.7,30.16,NNE,29,1.0,2.0,74,0.00,,,0.00,VWS V14.01,2013-02-23 09:12:00,
2013-02-23 02:17:00,33.1,25.7,30.16,NNE,29,1.0,1.0,74,0.00,,,0.00,VWS V14.01,2013-02-23 09:17:00,
2013-02-23 02:22:00,33.0,25.6,30.16,NNE,29,0.0,2.0,74,0.00,,,0.00,VWS V14.01,2013-02-23 09:22:00,
2013-02-23 02:27:00,32.9,25.5,30.15,NNE,29,1.0,2.0,74,0.00,,,0.00,VWS V14.01,2013-02-23 09:27:00,
2013-02-23 02:32:00,32.8,25.8,30.15,NNE,29,2.0,3.0,75,0.00,,,0.00,VWS V14.01,2013-02-23 09:32:00,
2013-02-23 02:37:00,32.7,25.7,30.15,NNE,29,0.0,1.0,75,0.00,,,0.00,VWS V14.01,2013-02-23 09:37:00,
2013-02-23 02:42:00,32.6,25.6,30.15,NNE,29,0.0,0.0,75,0.00,,,0.00,VWS V14.01,2013-02-23 09:42:00,
2013-02-23 02:47:00,32.6,25.6,30.15,NNE,29,0.0,1.0,75,0.00,,,0.00,VWS V14.01,2013-02-23 09:47:00,
2013-02-23 02:52:00,32.5,25.5,30.15,NNE,29,0.0,1.0,75,0.00,,,0.00,VWS V14.01,2013-02-23 09:52:00,
2013-02-23 02:57:00,32.5,25.5,30.15,NNE,29,0.0,0.0,75,0.00,,,0.00,VWS V14.01,2013-02-23 09:57:00,
2013-02-23 03:02:00,32.5,25.5,30.15,NNE,29,0.0,1.0,75,0.00,,,0.00,VWS V14.01,2013-02-23 10:02:00,
2013-02-23 03:07:00,32.5,25.5,30.15,NNE,29,0.0,2.0,75,0.00,,,0.00,VWS V14.01,2013-02-23 10:07:00,
2013-02-23 03:12:00,32.5,25.5,30.15,NNE,29,1.0,2.0,75,0.00,,,0.00,VWS V14.01,2013-02-23 10:12:00,
2013-02-23 03:17:00,32.7,25.7,30.14,NNE,29,0.0,1.0,75,0.00,,,0.00,VWS V14.01,2013-02-23 10:17:00,
2013-02-23 03:22:00,32.8,25.4,30.15,NNE,29,0.0,3.0,74,0.00,,,0.00,VWS V14.01,2013-02-23 10:22:00,
2013-02-23 03:27:00,32.9,25.5,30.14,NNE,29,0.0,1.0,74,0.00,,,0.00,VWS V14.01,2013-02-23 10:27:00,
2013-02-23 03:32:00,32.9,25.5,30.14,NNE,29,1.0,2.0,74,0.00,,,0.00,VWS V14.01,2013-02-23 10:32:00,
2013-02-23 03:37:00,33.1,25.4,30.14,NNE,29,2.0,3.0,73,0.00,,,0.00,VWS V14.01,2013-02-23 10:37:00,
2013-02-23 03:42:00,33.3,25.6,30.13,NNE,29,1.0,4.0,73,0.00,,,0.00,VWS V14.01,2013-02-23 10:42:00,
2013-02-23 03:47:00,33.3,25.6,30.13,NNE,29,0.0,1.0,73,0.00,,,0.00,VWS V14.01,2013-02-23 10:47:00,
2013-02-23 03:52:00,33.1,25.4,30.13,NNE,29,2.0,2.0,73,0.00,,,0.00,VWS V14.01,2013-02-23 10:52:00,
2013-02-23 03:57:00,32.8,25.4,30.13,NNE,29,0.0,2.0,74,0.00,,,0.00,VWS V14.01,2013-02-23 10:57:00,
2013-02-23 04:02:00,32.6,25.2,30.13,NNE,29,3.0,4.0,74,0.00,,,0.00,VWS V14.01,2013-02-23 11:02:00,
2013-02-23 04:07:00,32.4,25.4,30.12,NNE,29,2.0,2.0,75,0.00,,,0.00,VWS V14.01,2013-02-23 11:07:00,
2013-02-23 04:12:00,32.3,25.6,30.12,NNE,29,2.0,3.0,76,0.00,,,0.00,VWS V14.01,2013-02-23 11:12:00,
2013-02-23 04:17:00,32.3,25.3,30.12,NNE,29,1.0,3.0,75,0.00,,,0.00,VWS V14.01,2013-02-23 11:17:00,
2013-02-23 04:22:00,32.2,25.2,30.12,NNE,29,2.0,2.0,75,0.00,,,0.00,VWS V14.01,2013-02-23 11:22:00,
2013-02-23 04:27:00,32.1,25.1,30.12,NNE,29,2.0,3.0,75,0.00,,,0.00,VWS V14.01,2013-02-23 11:27:00,
2013-02-23 04:32:00,32.4,25.0,30.12,NNE,29,1.0,2.0,74,0.00,,,0.00,VWS V14.01,2013-02-23 11:32:00,
2013-02-23 04:37:00,32.7,25.0,30.12,NNE,29,4.0,4.0,73,0.00,,,0.00,VWS V14.01,2013-02-23 11:37:00,
2013-02-23 04:42:00,32.9,25.2,30.12,NNE,29,3.0,5.0,73,0.00,,,0.00,VWS V14.01,2013-02-23 11:42:00,
2013-02-23 04:47:00,32.9,25.2,30.12,NNE,29,0.0,0.0,73,0.00,,,0.00,VWS V14.01,2013-02-23 11:47:00,
2013-02-23 04:52:00,32.8,25.1,30.12,NNE,29,1.0,2.0,73,0.00,,,0.00,VWS V14.01,2013-02-23 11:52:00,
2013-02-23 04:57:00,32.7,25.0,30.12,NNE,29,1.0,2.0,73,0.00,,,0.00,VWS V14.01,2013-02-23 11:57:00,
2013-02-23 05:02:00,32.6,25.2,30.12,NNE,29,0.0,1.0,74,0.00,,,0.00,VWS V14.01,2013-02-23 12:02:00,
2013-02-23 05:07:00,32.5,25.1,30.12,NNE,29,4.0,4.0,74,0.00,,,0.00,VWS V14.01,2013-02-23 12:07:00,
2013-02-23 05:12:00,32.5,25.1,30.12,NNE,29,2.0,3.0,74,0.00,,,0.00,VWS V14.01,2013-02-23 12:12:00,
2013-02-23 05:17:00,32.4,25.0,30.12,NNE,29,2.0,4.0,74,0.00,,,0.00,VWS V14.01,2013-02-23 12:17:00,
2013-02-23 05:22:00,32.3,25.0,30.12,NNE,29,0.0,1.0,74,0.00,,,0.00,VWS V14.01,2013-02-23 12:22:00,
2013-02-23 05:27:00,32.3,25.0,30.12,NNE,29,0.0,2.0,74,0.00,,,0.00,VWS V14.01,2013-02-23 12:27:00,
2013-02-23 05:32:00,32.3,25.0,30.12,NNE,29,1.0,2.0,74,0.00,,,0.00,VWS V14.01,2013-02-23 12:32:00,
2013-02-23 05:37:00,32.3,25.0,30.12,NNE,29,3.0,4.0,74,0.00,,,0.00,VWS V14.01,2013-02-23 12:37:00,
2013-02-23 05:42:00,32.5,24.8,30.12,NNE,29,4.0,5.0,73,0.00,,,0.00,VWS V14.01,2013-02-23 12:42:00,
2013-02-23 05:47:00,32.8,25.1,30.12,NNE,25,2.0,4.0,73,0.00,,,0.00,VWS V14.01,2013-02-23 12:47:00,
2013-02-23 05:52:00,32.8,24.8,30.12,NNE,25,4.0,5.0,72,0.00,,,0.00,VWS V14.01,2013-02-23 12:52:00,
2013-02-23 05:57:00,32.9,24.9,30.12,NNE,25,3.0,5.0,72,0.00,,,0.00,VWS V14.01,2013-02-23 12:57:00,
2013-02-23 06:02:00,33.1,24.7,30.12,NNE,23,4.0,4.0,71,0.00,,,0.00,VWS V14.01,2013-02-23 13:02:00,
2013-02-23 06:07:00,33.5,24.8,30.12,NNE,16,6.0,7.0,70,0.00,,,0.00,VWS V14.01,2013-02-23 13:07:00,
2013-02-23 06:12:00,33.9,24.8,30.12,NNE,16,4.0,7.0,69,0.00,,,0.00,VWS V14.01,2013-02-23 13:12:00,
2013-02-23 06:17:00,34.1,24.7,30.12,NNE,13,6.0,8.0,68,0.00,,,0.00,VWS V14.01,2013-02-23 13:17:00,
2013-02-23 06:22:00,34.3,24.5,30.12,NNE,13,3.0,5.0,67,0.00,,,0.00,VWS V14.01,2013-02-23 13:22:00,
2013-02-23 06:27:00,34.4,24.6,30.12,NNE,13,5.0,5.0,67,0.00,,,0.00,VWS V14.01,2013-02-23 13:27:00,
2013-02-23 06:32:00,34.4,24.6,30.12,NNE,13,2.0,3.0,67,0.00,,,0.00,VWS V14.01,2013-02-23 13:32:00,
2013-02-23 06:37:00,34.4,24.6,30.12,NNE,13,4.0,4.0,67,0.00,,,0.00,VWS V14.01,2013-02-23 13:37:00,
2013-02-23 06:42:00,34.2,24.8,30.13,NNE,13,3.0,3.0,68,0.00,,,0.00,VWS V14.01,2013-02-23 13:42:00,
2013-02-23 06:47:00,34.0,24.6,30.12,NNE,13,5.0,5.0,68,0.00,,,0.00,VWS V14.01,2013-02-23 13:47:00,
2013-02-23 06:52:00,33.8,24.7,30.12,NNE,13,3.0,5.0,69,0.00,,,0.00,VWS V14.01,2013-02-23 13:52:00,
2013-02-23 06:57:00,33.7,24.6,30.12,NNE,13,4.0,5.0,69,0.00,,,0.00,VWS V14.01,2013-02-23 13:57:00,
2013-02-23 07:02:00,34.1,24.3,30.12,NNE,13,1.0,5.0,67,0.00,,,0.00,VWS V14.01,2013-02-23 14:02:00,
2013-02-23 07:07:00,34.5,24.7,30.12,NNE,13,2.0,3.0,67,0.00,,,0.00,VWS V14.01,2013-02-23 14:07:00,
2013-02-23 07:12:00,34.8,24.6,30.12,NNE,13,4.0,5.0,66,0.00,,,0.00,VWS V14.01,2013-02-23 14:12:00,
2013-02-23 07:17:00,35.0,24.8,30.12,NNE,13,2.0,3.0,66,0.00,,,0.00,VWS V14.01,2013-02-23 14:17:00,
2013-02-23 07:22:00,34.6,24.8,30.12,NNE,13,1.0,3.0,67,0.00,,,0.00,VWS V14.01,2013-02-23 14:22:00,
2013-02-23 07:27:00,34.2,24.8,30.12,NNE,13,2.0,3.0,68,0.00,,,0.00,VWS V14.01,2013-02-23 14:27:00,
2013-02-23 07:32:00,34.3,24.5,30.12,NNE,13,3.0,6.0,67,0.00,,,0.00,VWS V14.01,2013-02-23 14:32:00,
2013-02-23 07:37:00,34.9,24.7,30.12,NNE,13,7.0,7.0,66,0.00,,,0.00,VWS V14.01,2013-02-23 14:37:00,
2013-02-23 07:42:00,35.8,25.2,30.12,NNE,13,6.0,6.0,65,0.00,,,0.00,VWS V14.01,2013-02-23 14:42:00,
2013-02-23 07:47:00,36.6,25.6,30.12,NNE,13,3.0,7.0,64,0.00,,,0.00,VWS V14.01,2013-02-23 14:47:00,
2013-02-23 07:52:00,37.5,25.7,30.12,NNE,13,2.0,5.0,62,0.00,,,0.00,VWS V14.01,2013-02-23 14:52:00,
2013-02-23 07:57:00,38.2,26.0,30.12,NNE,13,3.0,5.0,61,0.00,,,0.00,VWS V14.01,2013-02-23 14:57:00,
2013-02-23 08:02:00,38.9,26.2,30.13,NNE,12,5.0,6.0,60,0.00,,,0.00,VWS V14.01,2013-02-23 15:02:00,
2013-02-23 08:07:00,39.5,26.0,30.13,North,11,4.0,5.0,58,0.00,,,0.00,VWS V14.01,2013-02-23 15:07:00,
2013-02-23 08:12:00,40.1,26.1,30.13,NNE,12,3.0,3.0,57,0.00,,,0.00,VWS V14.01,2013-02-23 15:12:00,
2013-02-23 08:17:00,40.7,26.7,30.13,North,11,0.0,3.0,57,0.00,,,0.00,VWS V14.01,2013-02-23 15:17:00,
2013-02-23 08:22:00,41.4,26.9,30.13,North,11,2.0,5.0,56,0.00,,,0.00,VWS V14.01,2013-02-23 15:22:00,
2013-02-23 08:27:00,42.0,27.0,30.13,North,11,3.0,4.0,55,0.00,,,0.00,VWS V14.01,2013-02-23 15:27:00,
2013-02-23 08:32:00,42.2,27.2,30.13,North,11,3.0,5.0,55,0.00,,,0.00,VWS V14.01,2013-02-23 15:32:00,
2013-02-23 08:37:00,42.5,27.0,30.13,North,11,0.0,3.0,54,0.00,,,0.00,VWS V14.01,2013-02-23 15:37:00,
2013-02-23 08:42:00,43.2,27.2,30.13,North,11,0.0,2.0,53,0.00,,,0.00,VWS V14.01,2013-02-23 15:42:00,
2013-02-23 08:47:00,43.7,28.2,30.13,North,11,0.0,1.0,54,0.00,,,0.00,VWS V14.01,2013-02-23 15:47:00,
2013-02-23 08:52:00,43.9,28.4,30.13,North,11,0.0,1.0,54,0.00,,,0.00,VWS V14.01,2013-02-23 15:52:00,
2013-02-23 08:57:00,44.1,28.1,30.13,North,11,0.0,1.0,53,0.00,,,0.00,VWS V14.01,2013-02-23 15:57:00,
2013-02-23 09:02:00,44.3,26.9,30.13,North,11,0.0,1.0,50,0.00,,,0.00,VWS V14.01,2013-02-23 16:02:00,
2013-02-23 09:07:00,44.8,25.3,30.13,North,11,2.0,3.0,46,0.00,,,0.00,VWS V14.01,2013-02-23 16:07:00,
2013-02-23 09:12:00,45.0,26.5,30.13,North,11,0.0,0.0,48,0.00,,,0.00,VWS V14.01,2013-02-23 16:12:00,
2013-02-23 09:17:00,45.9,26.8,30.12,North,11,1.0,3.0,47,0.00,,,0.00,VWS V14.01,2013-02-23 16:17:00,
2013-02-23 09:22:00,46.2,26.6,30.12,North,11,2.0,3.0,46,0.00,,,0.00,VWS V14.01,2013-02-23 16:22:00,
2013-02-23 09:27:00,46.7,26.5,30.12,North,11,0.0,0.0,45,0.00,,,0.00,VWS V14.01,2013-02-23 16:27:00,
2013-02-23 09:32:00,46.7,26.0,30.12,North,11,0.0,3.0,44,0.00,,,0.00,VWS V14.01,2013-02-23 16:32:00,
2013-02-23 09:37:00,46.9,26.1,30.12,North,11,4.0,4.0,44,0.00,,,0.00,VWS V14.01,2013-02-23 16:37:00,
2013-02-23 09:42:00,47.0,25.1,30.11,North,11,0.0,1.0,42,0.00,,,0.00,VWS V14.01,2013-02-23 16:42:00,
2013-02-23 09:47:00,48.0,25.4,30.12,North,11,1.0,4.0,41,0.00,,,0.00,VWS V14.01,2013-02-23 16:47:00,
2013-02-23 09:52:00,48.3,26.9,30.12,North,11,1.0,3.0,43,0.00,,,0.00,VWS V14.01,2013-02-23 16:52:00,
2013-02-23 09:57:00,48.5,27.0,30.12,North,11,1.0,2.0,43,0.00,,,0.00,VWS V14.01,2013-02-23 16:57:00,
2013-02-23 10:02:00,48.5,28.1,30.12,North,11,1.0,1.0,45,0.00,,,0.00,VWS V14.01,2013-02-23 17:02:00,
2013-02-23 10:07:00,49.0,28.0,30.11,North,11,1.0,2.0,44,0.00,,,0.00,VWS V14.01,2013-02-23 17:07:00,
2013-02-23 10:12:00,49.4,27.3,30.11,North,11,0.0,3.0,42,0.00,,,0.00,VWS V14.01,2013-02-23 17:12:00,
2013-02-23 10:17:00,49.1,25.2,30.11,North,11,1.0,4.0,39,0.00,,,0.00,VWS V14.01,2013-02-23 17:17:00,
2013-02-23 10:22:00,49.4,26.7,30.11,North,11,0.0,5.0,41,0.00,,,0.00,VWS V14.01,2013-02-23 17:22:00,
2013-02-23 10:27:00,49.4,25.5,30.11,North,11,0.0,2.0,39,0.00,,,0.00,VWS V14.01,2013-02-23 17:27:00,
2013-02-23 10:32:00,50.1,26.1,30.11,North,11,0.0,1.0,39,0.00,,,0.00,VWS V14.01,2013-02-23 17:32:00,
2013-02-23 10:37:00,50.8,26.1,30.11,North,11,0.0,4.0,38,0.00,,,0.00,VWS V14.01,2013-02-23 17:37:00,
2013-02-23 10:42:00,51.2,27.1,30.10,North,11,3.0,5.0,39,0.00,,,0.00,VWS V14.01,2013-02-23 17:42:00,
2013-02-23 10:47:00,51.1,26.4,30.10,North,11,0.0,0.0,38,0.00,,,0.00,VWS V14.01,2013-02-23 17:47:00,
2013-02-23 10:52:00,51.6,27.5,30.10,North,11,2.0,4.0,39,0.00,,,0.00,VWS V14.01,2013-02-23 17:52:00,
2013-02-23 10:57:00,52.3,27.5,30.09,North,11,0.0,2.0,38,0.00,,,0.00,VWS V14.01,2013-02-23 17:57:00,
2013-02-23 11:02:00,52.6,27.1,30.09,North,11,1.0,4.0,37,0.00,,,0.00,VWS V14.01,2013-02-23 18:02:00,
2013-02-23 11:07:00,52.5,26.3,30.09,North,11,0.0,3.0,36,0.00,,,0.00,VWS V14.01,2013-02-23 18:07:00,
2013-02-23 11:12:00,52.9,26.7,30.09,North,11,0.0,1.0,36,0.00,,,0.00,VWS V14.01,2013-02-23 18:12:00,
2013-02-23 11:17:00,53.8,26.8,30.08,North,11,1.0,1.0,35,0.00,,,0.00,VWS V14.01,2013-02-23 18:17:00,
2013-02-23 11:22:00,53.7,26.0,30.08,North,5,1.0,6.0,34,0.00,,,0.00,VWS V14.01,2013-02-23 18:22:00,
2013-02-23 11:27:00,54.1,25.6,30.08,North,5,0.0,1.0,33,0.00,,,0.00,VWS V14.01,2013-02-23 18:27:00,
2013-02-23 11:32:00,54.8,26.3,30.08,North,5,1.0,3.0,33,0.00,,,0.00,VWS V14.01,2013-02-23 18:32:00,
2013-02-23 11:37:00,56.6,27.1,30.07,NNW,340,0.0,5.0,32,0.00,,,0.00,VWS V14.01,2013-02-23 18:37:00,
2013-02-23 11:42:00,56.6,26.3,30.07,NNW,340,0.0,1.0,31,0.00,,,0.00,VWS V14.01,2013-02-23 18:42:00,
2013-02-23 11:47:00,56.3,26.1,30.07,NNW,340,1.0,4.0,31,0.00,,,0.00,VWS V14.01,2013-02-23 18:47:00,
2013-02-23 11:52:00,57.3,27.0,30.06,NNW,336,2.0,4.0,31,0.00,,,0.00,VWS V14.01,2013-02-23 18:52:00,
2013-02-23 11:57:00,55.6,27.0,30.06,NNW,336,0.0,1.0,33,0.00,,,0.00,VWS V14.01,2013-02-23 18:57:00,
2013-02-23 12:02:00,56.7,27.2,30.06,NNW,336,4.0,4.0,32,0.00,,,0.00,VWS V14.01,2013-02-23 19:02:00,
2013-02-23 12:07:00,57.0,28.2,30.06,NNW,336,2.0,3.0,33,0.00,,,0.00,VWS V14.01,2013-02-23 19:07:00,
2013-02-23 12:12:00,56.2,26.0,30.05,NNW,336,0.0,2.0,31,0.00,,,0.00,VWS V14.01,2013-02-23 19:12:00,
2013-02-23 12:17:00,56.7,27.9,30.05,NNW,336,1.0,3.0,33,0.00,,,0.00,VWS V14.01,2013-02-23 19:17:00,
2013-02-23 12:23:00,58.7,25.7,30.04,NW,304,0.0,6.0,28,0.00,,,0.00,VWS V14.01,2013-02-23 19:23:00,
2013-02-23 12:28:00,59.3,27.1,30.03,NW,304,6.0,7.0,29,0.00,,,0.00,VWS V14.01,2013-02-23 19:28:00,
2013-02-23 12:33:00,59.5,25.5,30.03,NW,304,0.0,2.0,27,0.00,,,0.00,VWS V14.01,2013-02-23 19:33:00,
2013-02-23 12:38:00,58.8,23.1,30.02,NW,304,0.0,2.0,25,0.00,,,0.00,VWS V14.01,2013-02-23 19:38:00,
2013-02-23 12:43:00,57.5,22.9,30.02,NW,304,0.0,1.0,26,0.00,,,0.00,VWS V14.01,2013-02-23 19:43:00,
2013-02-23 12:48:00,57.8,24.1,30.01,NW,304,1.0,2.0,27,0.00,,,0.00,VWS V14.01,2013-02-23 19:48:00,
2013-02-23 12:53:00,59.1,26.0,30.01,NW,304,0.0,4.0,28,0.00,,,0.00,VWS V14.01,2013-02-23 19:53:00,
2013-02-23 12:58:00,59.4,26.3,30.00,West,261,4.0,7.0,28,0.00,,,0.00,VWS V14.01,2013-02-23 19:58:00,
2013-02-23 13:03:00,59.4,25.4,30.00,West,261,0.0,4.0,27,0.00,,,0.00,VWS V14.01,2013-02-23 20:03:00,
2013-02-23 13:08:00,59.9,25.9,29.99,West,261,1.0,2.0,27,0.00,,,0.00,VWS V14.01,2013-02-23 20:08:00,
2013-02-23 13:13:00,60.0,26.0,29.99,West,261,3.0,7.0,27,0.00,,,0.00,VWS V14.01,2013-02-23 20:13:00,
2013-02-23 13:18:00,61.0,25.9,29.99,West,259,4.0,8.0,26,0.00,,,0.00,VWS V14.01,2013-02-23 20:18:00,
2013-02-23 13:23:00,59.8,24.9,29.98,West,259,4.0,6.0,26,0.00,,,0.00,VWS V14.01,2013-02-23 20:23:00,
2013-02-23 13:28:00,60.8,25.7,29.97,WSW,254,2.0,5.0,26,0.00,,,0.00,VWS V14.01,2013-02-23 20:28:00,
2013-02-23 13:33:00,60.8,26.6,29.98,WSW,254,2.0,6.0,27,0.00,,,0.00,VWS V14.01,2013-02-23 20:33:00,
2013-02-23 13:38:00,61.0,26.8,29.98,WSW,252,3.0,7.0,27,0.00,,,0.00,VWS V14.01,2013-02-23 20:38:00,
2013-02-23 13:43:00,62.0,23.8,29.98,WSW,247,1.0,7.0,23,0.00,,,0.00,VWS V14.01,2013-02-23 20:43:00,
2013-02-23 13:48:00,62.0,26.8,29.97,WSW,246,3.0,7.0,26,0.00,,,0.00,VWS V14.01,2013-02-23 20:48:00,
2013-02-23 13:53:00,62.0,25.8,29.97,WSW,246,3.0,7.0,25,0.00,,,0.00,VWS V14.01,2013-02-23 20:53:00,
2013-02-23 13:58:00,62.3,23.0,29.97,WSW,246,5.0,6.0,22,0.00,,,0.00,VWS V14.01,2013-02-23 20:58:00,
2013-02-23 14:03:00,61.4,23.3,29.96,WSW,246,1.0,6.0,23,0.00,,,0.00,VWS V14.01,2013-02-23 21:03:00,
2013-02-23 14:08:00,61.7,24.6,29.96,WSW,246,2.0,6.0,24,0.00,,,0.00,VWS V14.01,2013-02-23 21:08:00,
2013-02-23 14:13:00,62.4,23.1,29.96,WSW,246,4.0,7.0,22,0.00,,,0.00,VWS V14.01,2013-02-23 21:13:00,
2013-02-23 14:18:00,61.8,21.5,29.96,WSW,246,4.0,5.0,21,0.00,,,0.00,VWS V14.01,2013-02-23 21:18:00,
2013-02-23 14:23:00,62.0,21.6,29.95,WSW,242,2.0,8.0,21,0.00,,,0.00,VWS V14.01,2013-02-23 21:23:00,
2013-02-23 14:28:00,62.5,19.7,29.95,WSW,238,5.0,9.0,19,0.00,,,0.00,VWS V14.01,2013-02-23 21:28:00,
2013-02-23 14:33:00,62.4,20.8,29.95,WSW,238,0.0,6.0,20,0.00,,,0.00,VWS V14.01,2013-02-23 21:33:00,
2013-02-23 14:38:00,62.3,18.3,29.94,WSW,238,3.0,6.0,18,0.00,,,0.00,VWS V14.01,2013-02-23 21:38:00,
2013-02-23 14:43:00,62.3,20.8,29.94,SW,221,1.0,7.0,20,0.00,,,0.00,VWS V14.01,2013-02-23 21:43:00,
2013-02-23 14:48:00,62.1,21.7,29.94,SW,220,0.0,7.0,21,0.00,,,0.00,VWS V14.01,2013-02-23 21:48:00,
2013-02-23 14:53:00,62.5,22.1,29.94,SW,220,0.0,8.0,21,0.00,,,0.00,VWS V14.01,2013-02-23 21:53:00,
2013-02-23 14:58:00,62.7,21.1,29.94,SW,218,5.0,8.0,20,0.00,,,0.00,VWS V14.01,2013-02-23 21:58:00,
2013-02-23 15:03:00,62.7,19.9,29.94,SW,218,4.0,5.0,19,0.00,,,0.00,VWS V14.01,2013-02-23 22:03:00,
2013-02-23 15:08:00,62.5,22.1,29.93,SW,217,4.0,8.0,21,0.00,,,0.00,VWS V14.01,2013-02-23 22:08:00,
2013-02-23 15:13:00,62.4,20.8,29.93,SSW,213,4.0,9.0,20,0.00,,,0.00,VWS V14.01,2013-02-23 22:13:00,
2013-02-23 15:18:00,62.4,19.6,29.93,SSW,213,4.0,9.0,19,0.00,,,0.00,VWS V14.01,2013-02-23 22:18:00,
2013-02-23 15:23:00,62.3,20.8,29.93,SW,214,0.0,10.0,20,0.00,,,0.00,VWS V14.01,2013-02-23 22:23:00,
2013-02-23 15:28:00,62.1,20.6,29.93,SW,214,7.0,7.0,20,0.00,,,0.00,VWS V14.01,2013-02-23 22:28:00,
2013-02-23 15:33:00,61.9,20.4,29.93,SW,215,7.0,7.0,20,0.00,,,0.00,VWS V14.01,2013-02-23 22:33:00,
2013-02-23 15:38:00,61.6,21.3,29.92,SW,227,5.0,9.0,21,0.00,,,0.00,VWS V14.01,2013-02-23 22:38:00,
2013-02-23 15:43:00,61.7,20.2,29.93,SW,223,8.0,11.0,20,0.00,,,0.00,VWS V14.01,2013-02-23 22:43:00,
2013-02-23 15:48:00,61.6,20.2,29.92,SW,229,7.0,7.0,20,0.00,,,0.00,VWS V14.01,2013-02-23 22:48:00,
2013-02-23 15:53:00,61.8,21.5,29.92,WSW,258,4.0,6.0,21,0.00,,,0.00,VWS V14.01,2013-02-23 22:53:00,
2013-02-23 15:58:00,61.3,19.9,29.91,WSW,249,5.0,9.0,20,0.00,,,0.00,VWS V14.01,2013-02-23 22:58:00,
2013-02-23 16:03:00,61.3,19.9,29.91,WSW,242,4.0,10.0,20,0.00,,,0.00,VWS V14.01,2013-02-23 23:03:00,
2013-02-23 16:08:00,61.0,19.7,29.91,WSW,240,0.0,8.0,20,0.00,,,0.00,VWS V14.01,2013-02-23 23:08:00,
2013-02-23 16:13:00,61.0,20.8,29.90,SW,236,6.0,9.0,21,0.00,,,0.00,VWS V14.01,2013-02-23 23:13:00,
2013-02-23 16:18:00,60.9,20.7,29.90,SW,234,0.0,5.0,21,0.00,,,0.00,VWS V14.01,2013-02-23 23:18:00,
2013-02-23 16:23:00,60.9,20.7,29.90,SW,232,6.0,9.0,21,0.00,,,0.00,VWS V14.01,2013-02-23 23:23:00,
2013-02-23 16:28:00,60.6,19.3,29.89,SW,229,3.0,7.0,20,0.00,,,0.00,VWS V14.01,2013-02-23 23:28:00,
2013-02-23 16:33:00,60.5,20.4,29.89,SW,229,5.0,9.0,21,0.00,,,0.00,VWS V14.01,2013-02-23 23:33:00,
2013-02-23 16:38:00,60.2,21.2,29.89,SSW,211,1.0,9.0,22,0.00,,,0.00,VWS V14.01,2013-02-23 23:38:00,
2013-02-23 16:43:00,60.1,21.1,29.90,SSW,211,7.0,8.0,22,0.00,,,0.00,VWS V14.01,2013-02-23 23:43:00,
2013-02-23 16:48:00,60.0,22.1,29.89,SSW,208,8.0,9.0,23,0.00,,,0.00,VWS V14.01,2013-02-23 23:48:00,
2013-02-23 16:53:00,59.8,22.0,29.89,SSW,209,7.0,8.0,23,0.00,,,0.00,VWS V14.01,2013-02-23 23:53:00,
2013-02-23 16:58:00,59.7,20.8,29.89,SSW,209,8.0,9.0,22,0.00,,,0.00,VWS V14.01,2013-02-23 23:58:00,
2013-02-23 17:03:00,59.7,22.9,29.89,SSW,209,5.0,7.0,24,0.00,,,0.00,VWS V14.01,2013-02-24 00:03:00,
2013-02-23 17:08:00,59.8,20.9,29.89,SSW,209,2.0,7.0,22,0.00,,,0.00,VWS V14.01,2013-02-24 00:08:00,
2013-02-23 17:13:00,59.6,20.7,29.89,SSW,208,2.0,7.0,22,0.00,,,0.00,VWS V14.01,2013-02-24 00:13:00,
2013-02-23 17:18:00,59.3,20.5,29.89,SSW,208,6.0,8.0,22,0.00,,,0.00,VWS V14.01,2013-02-24 00:18:00,
2013-02-23 17:23:00,59.2,21.4,29.89,SSW,209,7.0,7.0,23,0.00,,,0.00,VWS V14.01,2013-02-24 00:23:00,
2013-02-23 17:28:00,58.9,22.2,29.89,SSW,208,3.0,6.0,24,0.00,,,0.00,VWS V14.01,2013-02-24 00:28:00,
2013-02-23 17:33:00,58.8,22.1,29.89,SSW,208,0.0,8.0,24,0.00,,,0.00,VWS V14.01,2013-02-24 00:33:00,
2013-02-23 17:38:00,58.6,22.9,29.89,SSW,208,5.0,6.0,25,0.00,,,0.00,VWS V14.01,2013-02-24 00:38:00,
2013-02-23 17:43:00,58.2,23.5,29.89,SSW,209,4.0,6.0,26,0.00,,,0.00,VWS V14.01,2013-02-24 00:43:00,
2013-02-23 17:48:00,58.1,23.4,29.89,SSW,208,2.0,4.0,26,0.00,,,0.00,VWS V14.01,2013-02-24 00:48:00,
2013-02-23 17:53:00,57.9,23.2,29.88,SSW,208,3.0,5.0,26,0.00,,,0.00,VWS V14.01,2013-02-24 00:53:00,
2013-02-23 17:58:00,57.6,23.9,29.88,SSW,208,3.0,5.0,27,0.00,,,0.00,VWS V14.01,2013-02-24 00:58:00,
2013-02-23 18:03:00,57.3,24.5,29.88,SSW,208,0.0,4.0,28,0.00,,,0.00,VWS V14.01,2013-02-24 01:03:00,
2013-02-23 18:08:00,57.1,25.2,29.88,SSW,208,1.0,2.0,29,0.00,,,0.00,VWS V14.01,2013-02-24 01:08:00,
2013-02-23 18:13:00,56.7,25.6,29.88,SSW,208,1.0,3.0,30,0.00,,,0.00,VWS V14.01,2013-02-24 01:13:00,
2013-02-23 18:18:00,56.2,26.0,29.88,SSW,208,1.0,3.0,31,0.00,,,0.00,VWS V14.01,2013-02-24 01:18:00,
2013-02-23 18:23:00,55.7,24.8,29.88,SSW,208,0.0,3.0,30,0.00,,,0.00,VWS V14.01,2013-02-24 01:23:00,
2013-02-23 18:28:00,55.3,26.0,29.88,SSW,208,0.0,1.0,32,0.00,,,0.00,VWS V14.01,2013-02-24 01:28:00,
2013-02-23 18:33:00,54.8,26.3,29.88,SSW,208,0.0,1.0,33,0.00,,,0.00,VWS V14.01,2013-02-24 01:33:00,
2013-02-23 18:38:00,54.5,26.7,29.88,SSW,208,0.0,1.0,34,0.00,,,0.00,VWS V14.01,2013-02-24 01:38:00,
2013-02-23 18:43:00,54.0,26.3,29.88,SSW,208,0.0,1.0,34,0.00,,,0.00,VWS V14.01,2013-02-24 01:43:00,
2013-02-23 18:48:00,53.5,27.2,29.88,SSW,208,0.0,1.0,36,0.00,,,0.00,VWS V14.01,2013-02-24 01:48:00,
2013-02-23 18:53:00,53.0,27.4,29.88,SSW,208,0.0,1.0,37,0.00,,,0.00,VWS V14.01,2013-02-24 01:53:00,
2013-02-23 18:58:00,52.6,27.1,29.88,SSW,208,0.0,0.0,37,0.00,,,0.00,VWS V14.01,2013-02-24 01:58:00,
2013-02-23 19:03:00,52.3,26.2,29.88,SSW,208,0.0,1.0,36,0.00,,,0.00,VWS V14.01,2013-02-24 02:03:00,
2013-02-23 19:08:00,52.0,27.2,29.88,SSW,208,0.0,0.0,38,0.00,,,0.00,VWS V14.01,2013-02-24 02:08:00,
2013-02-23 19:13:00,51.7,25.6,29.88,SSW,208,0.0,0.0,36,0.00,,,0.00,VWS V14.01,2013-02-24 02:13:00,
2013-02-23 19:18:00,51.4,26.0,29.88,SSW,208,0.0,0.0,37,0.00,,,0.00,VWS V14.01,2013-02-24 02:18:00,
2013-02-23 19:23:00,51.2,26.5,29.88,SSW,208,0.0,0.0,38,0.00,,,0.00,VWS V14.01,2013-02-24 02:23:00,
2013-02-23 19:28:00,50.9,26.8,29.88,SSW,208,0.0,0.0,39,0.00,,,0.00,VWS V14.01,2013-02-24 02:28:00,
2013-02-23 19:33:00,50.5,27.1,29.88,SSW,208,0.0,0.0,40,0.00,,,0.00,VWS V14.01,2013-02-24 02:33:00,
2013-02-23 19:38:00,50.3,26.9,29.88,SSW,208,0.0,0.0,40,0.00,,,0.00,VWS V14.01,2013-02-24 02:38:00,
2013-02-23 19:43:00,50.0,27.2,29.88,SSW,208,0.0,0.0,41,0.00,,,0.00,VWS V14.01,2013-02-24 02:43:00,
2013-02-23 19:48:00,49.7,27.0,29.88,SSW,208,0.0,0.0,41,0.00,,,0.00,VWS V14.01,2013-02-24 02:48:00,
2013-02-23 19:53:00,49.4,26.7,29.88,SSW,208,0.0,0.0,41,0.00,,,0.00,VWS V14.01,2013-02-24 02:53:00,
2013-02-23 19:58:00,49.4,27.3,29.88,SSW,208,0.0,1.0,42,0.00,,,0.00,VWS V14.01,2013-02-24 02:58:00,
2013-02-23 20:06:00,49.3,27.8,29.88,SSW,208,0.0,2.0,43,0.00,,,0.00,VWS V14.01,2013-02-24 03:06:00,
2013-02-23 20:11:00,49.2,29.3,29.88,SSW,208,0.0,0.0,46,0.00,,,0.00,VWS V14.01,2013-02-24 03:11:00,
2013-02-23 20:16:00,48.8,29.0,29.88,SSW,208,1.0,2.0,46,0.00,,,0.00,VWS V14.01,2013-02-24 03:16:00,
2013-02-23 20:21:00,48.5,29.2,29.89,SSW,208,0.0,2.0,47,0.00,,,0.00,VWS V14.01,2013-02-24 03:21:00,
2013-02-23 20:26:00,48.3,28.5,29.89,SSW,208,0.0,1.0,46,0.00,,,0.00,VWS V14.01,2013-02-24 03:26:00,
2013-02-23 20:31:00,48.1,29.9,29.89,SSW,208,0.0,0.0,49,0.00,,,0.00,VWS V14.01,2013-02-24 03:31:00,
2013-02-23 20:36:00,47.8,30.6,29.89,SSW,208,0.0,0.0,51,0.00,,,0.00,VWS V14.01,2013-02-24 03:36:00,
2013-02-23 20:41:00,47.4,29.7,29.88,SSW,208,0.0,0.0,50,0.00,,,0.00,VWS V14.01,2013-02-24 03:41:00,
2013-02-23 20:46:00,47.0,29.8,29.88,SSW,208,0.0,0.0,51,0.00,,,0.00,VWS V14.01,2013-02-24 03:46:00,
2013-02-23 20:51:00,46.9,30.7,29.88,SSW,208,0.0,1.0,53,0.00,,,0.00,VWS V14.01,2013-02-24 03:51:00,
2013-02-23 20:56:00,46.5,30.8,29.89,SSW,208,0.0,3.0,54,0.00,,,0.00,VWS V14.01,2013-02-24 03:56:00,
2013-02-23 21:01:00,46.1,29.9,29.89,SSW,208,1.0,2.0,53,0.00,,,0.00,VWS V14.01,2013-02-24 04:01:00,
2013-02-23 21:06:00,45.8,29.2,29.89,SSW,208,0.0,2.0,52,0.00,,,0.00,VWS V14.01,2013-02-24 04:06:00,
2013-02-23 21:11:00,45.6,29.5,29.89,SSW,208,0.0,1.0,53,0.00,,,0.00,VWS V14.01,2013-02-24 04:11:00,
2013-02-23 21:16:00,45.5,28.4,29.89,SSW,208,0.0,1.0,51,0.00,,,0.00,VWS V14.01,2013-02-24 04:16:00,
2013-02-23 21:21:00,45.5,29.8,29.90,SSW,208,1.0,3.0,54,0.00,,,0.00,VWS V14.01,2013-02-24 04:21:00,
2013-02-23 21:26:00,45.4,29.3,29.89,SSW,208,0.0,3.0,53,0.00,,,0.00,VWS V14.01,2013-02-24 04:26:00,
2013-02-23 21:31:00,45.2,30.0,29.90,SSW,208,0.0,1.0,55,0.00,,,0.00,VWS V14.01,2013-02-24 04:31:00,
2013-02-23 21:36:00,45.0,30.7,29.89,SSW,208,0.0,0.0,57,0.00,,,0.00,VWS V14.01,2013-02-24 04:36:00,
2013-02-23 21:41:00,44.8,30.1,29.89,SSW,208,2.0,2.0,56,0.00,,,0.00,VWS V14.01,2013-02-24 04:41:00,
2013-02-23 21:46:00,44.5,29.4,29.89,SSW,208,1.0,3.0,55,0.00,,,0.00,VWS V14.01,2013-02-24 04:46:00,
2013-02-23 21:51:00,44.2,29.5,29.89,SSW,208,0.0,3.0,56,0.00,,,0.00,VWS V14.01,2013-02-24 04:51:00,
2013-02-23 21:56:00,44.0,28.4,29.89,SSW,208,1.0,1.0,54,0.00,,,0.00,VWS V14.01,2013-02-24 04:56:00,
2013-02-23 22:01:00,43.7,29.5,29.89,SSW,208,0.0,2.0,57,0.00,,,0.00,VWS V14.01,2013-02-24 05:01:00,
2013-02-23 22:04:00,43.6,30.2,29.89,SSW,208,0.0,2.0,59,0.00,,,0.00,VWS V14.01,2013-02-24 05:04:00,
2013-02-23 22:09:00,43.3,29.5,29.89,SSW,208,1.0,2.0,58,0.00,,,0.00,VWS V14.01,2013-02-24 05:09:00,
2013-02-23 22:14:00,42.9,29.2,29.89,SSW,208,0.0,0.0,58,0.00,,,0.00,VWS V14.01,2013-02-24 05:14:00,
2013-02-23 22:16:00,42.9,30.4,29.89,SSW,208,0.0,0.0,61,0.00,,,0.00,VWS V14.01,2013-02-24 05:16:00,
2013-02-23 22:21:00,42.7,30.6,29.89,SSW,208,0.0,0.0,62,0.00,,,0.00,VWS V14.01,2013-02-24 05:21:00,
2013-02-23 22:26:00,42.6,30.1,29.89,SSW,208,0.0,0.0,61,0.00,,,0.00,VWS V14.01,2013-02-24 05:26:00,
2013-02-23 22:31:00,42.4,29.1,29.89,SSW,208,0.0,0.0,59,0.00,,,0.00,VWS V14.01,2013-02-24 05:31:00,
2013-02-23 22:36:00,42.2,29.7,29.90,SSW,208,0.0,1.0,61,0.00,,,0.00,VWS V14.01,2013-02-24 05:36:00,
2013-02-23 22:41:00,41.9,29.5,29.90,SSW,208,0.0,0.0,61,0.00,,,0.00,VWS V14.01,2013-02-24 05:41:00,
2013-02-23 22:46:00,41.8,29.0,29.90,SSW,208,0.0,1.0,60,0.00,,,0.00,VWS V14.01,2013-02-24 05:46:00,
2013-02-23 22:51:00,41.7,29.3,29.89,SSW,208,0.0,0.0,61,0.00,,,0.00,VWS V14.01,2013-02-24 05:51:00,
2013-02-23 22:56:00,41.6,29.2,29.89,SSW,208,0.0,0.0,61,0.00,,,0.00,VWS V14.01,2013-02-24 05:56:00,
2013-02-23 23:01:00,41.5,29.5,29.89,SSW,208,0.0,0.0,62,0.00,,,0.00,VWS V14.01,2013-02-24 06:01:00,
2013-02-23 23:06:00,41.4,29.8,29.89,SSW,208,0.0,0.0,63,0.00,,,0.00,VWS V14.01,2013-02-24 06:06:00,
2013-02-23 23:11:00,41.2,29.2,29.89,SSW,208,1.0,2.0,62,0.00,,,0.00,VWS V14.01,2013-02-24 06:11:00,
2013-02-23 23:16:00,41.2,28.8,29.89,SSW,208,0.0,3.0,61,0.00,,,0.00,VWS V14.01,2013-02-24 06:16:00,
2013-02-23 23:21:00,41.3,29.3,29.89,SSW,208,0.0,1.0,62,0.00,,,0.00,VWS V14.01,2013-02-24 06:21:00,
2013-02-23 23:26:00,41.2,28.8,29.89,SSW,208,1.0,3.0,61,0.00,,,0.00,VWS V14.01,2013-02-24 06:26:00,
2013-02-23 23:31:00,41.0,29.0,29.89,SSW,208,0.0,2.0,62,0.00,,,0.00,VWS V14.01,2013-02-24 06:31:00,
2013-02-23 23:36:00,40.8,29.2,29.89,SSW,208,1.0,2.0,63,0.00,,,0.00,VWS V14.01,2013-02-24 06:36:00,
2013-02-23 23:41:00,40.6,28.6,29.89,SSW,208,0.0,1.0,62,0.00,,,0.00,VWS V14.01,2013-02-24 06:41:00,
2013-02-23 23:46:00,40.6,29.4,29.88,SSW,208,0.0,3.0,64,0.00,,,0.00,VWS V14.01,2013-02-24 06:46:00,
2013-02-23 23:51:00,40.6,29.0,29.88,SSW,208,0.0,1.0,63,0.00,,,0.00,VWS V14.01,2013-02-24 06:51:00,
2013-02-23 23:56:00,40.6,29.4,29.88,SSW,208,0.0,1.0,64,0.00,,,0.00,VWS V14.01,2013-02-24 06:56:00,